createdAt,value
2023-04-01T00:00:06.646Z,29.93
2023-04-01T00:01:06.604Z,29.91
2023-04-01T00:02:06.658Z,29.91
2023-04-01T00:03:06.671Z,29.88
2023-04-01T00:04:06.596Z,29.91
2023-04-01T00:05:22.066Z,29.88
2023-04-01T00:06:06.465Z,29.89
2023-04-01T00:07:06.439Z,29.88
2023-04-01T00:08:06.421Z,29.91
2023-04-01T00:09:06.383Z,29.92
2023-04-01T00:10:06.353Z,29.92
2023-04-01T00:11:06.339Z,29.87
2023-04-01T00:12:06.320Z,29.89
2023-04-01T00:13:06.270Z,29.88
2023-04-01T00:14:06.252Z,29.88
2023-04-01T00:15:06.204Z,29.88
2023-04-01T00:17:06.214Z,29.86
2023-04-01T00:18:06.213Z,29.89
2023-04-01T00:19:06.081Z,29.88
2023-04-01T00:20:06.067Z,29.89
2023-04-01T00:21:06.016Z,29.91
2023-04-01T00:22:05.981Z,29.92
2023-04-01T00:23:05.942Z,29.89
2023-04-01T00:24:05.921Z,29.88
2023-04-01T00:25:05.938Z,29.88
2023-04-01T00:26:05.848Z,29.86
2023-04-01T00:27:05.837Z,29.88
2023-04-01T00:28:05.802Z,29.88
2023-04-01T00:29:05.797Z,29.86
2023-04-01T00:30:05.738Z,29.88
2023-04-01T00:31:05.759Z,29.89
2023-04-01T00:32:05.765Z,29.88
2023-04-01T00:33:05.694Z,29.89
2023-04-01T00:34:05.658Z,29.84
2023-04-01T00:35:05.603Z,29.86
2023-04-01T00:36:05.610Z,29.89
2023-04-01T00:37:05.540Z,29.89
2023-04-01T00:38:05.554Z,29.92
2023-04-01T00:39:05.591Z,29.93
2023-04-01T00:40:05.625Z,29.88
2023-04-01T00:41:05.652Z,29.92
2023-04-01T00:42:05.705Z,29.89
2023-04-01T00:43:05.710Z,29.88
2023-04-01T00:44:05.754Z,29.89
2023-04-01T00:45:05.799Z,29.91
2023-04-01T00:46:05.813Z,29.88
2023-04-01T00:47:05.891Z,29.91
2023-04-01T00:48:05.980Z,29.92
2023-04-01T00:49:05.916Z,29.86
2023-04-01T00:50:05.958Z,29.85
2023-04-01T00:51:05.978Z,29.88
2023-04-01T00:52:06.026Z,29.89
2023-04-01T00:53:05.995Z,29.89
2023-04-01T00:54:05.981Z,29.88
2023-04-01T00:55:05.940Z,29.90
2023-04-01T00:56:05.925Z,29.91
2023-04-01T00:57:05.951Z,29.88
2023-04-01T00:58:05.842Z,29.89
2023-04-01T00:59:05.837Z,29.88
2023-04-01T01:00:05.814Z,29.89
2023-04-01T01:01:05.816Z,29.86
2023-04-01T01:02:05.772Z,29.93
2023-04-01T01:03:05.811Z,29.88
2023-04-01T01:04:05.788Z,29.92
2023-04-01T01:05:05.811Z,29.92
2023-04-01T01:06:05.838Z,29.89
2023-04-01T01:07:05.883Z,29.93
2023-04-01T01:08:05.909Z,29.89
2023-04-01T01:09:05.928Z,29.88
2023-04-01T01:10:05.968Z,29.90
2023-04-01T01:11:06.006Z,29.86
2023-04-01T01:12:06.030Z,29.88
2023-04-01T01:13:06.050Z,29.90
2023-04-01T01:14:06.089Z,29.91
2023-04-01T01:15:06.129Z,29.91
2023-04-01T01:16:06.165Z,29.89
2023-04-01T01:17:06.175Z,29.91
2023-04-01T01:18:06.266Z,29.88
2023-04-01T01:19:06.240Z,29.93
2023-04-01T01:20:15.516Z,29.90
2023-04-01T01:21:06.268Z,29.91
2023-04-01T01:22:06.247Z,29.88
2023-04-01T01:23:06.200Z,29.92
2023-04-01T01:24:06.187Z,29.85
2023-04-01T01:25:06.161Z,29.93
2023-04-01T01:26:06.124Z,29.88
2023-04-01T01:27:06.091Z,29.89
2023-04-01T01:28:06.080Z,29.90
2023-04-01T01:29:06.022Z,29.90
2023-04-01T01:30:06.007Z,29.86
2023-04-01T01:31:05.988Z,29.93
2023-04-01T01:32:05.936Z,29.89
2023-04-01T01:33:05.994Z,29.86
2023-04-01T01:34:05.950Z,29.89
2023-04-01T01:35:05.986Z,29.88
2023-04-01T01:36:06.032Z,29.90
2023-04-01T01:37:06.034Z,29.89
2023-04-01T01:38:06.057Z,29.89
2023-04-01T01:39:06.088Z,29.91
2023-04-01T01:40:06.130Z,29.88
2023-04-01T01:41:06.158Z,29.88
2023-04-01T01:42:06.191Z,29.89
2023-04-01T01:43:06.246Z,29.89
2023-04-01T01:44:06.268Z,29.90
2023-04-01T01:45:06.325Z,29.86
2023-04-01T01:46:06.397Z,29.86
2023-04-01T01:47:06.375Z,29.88
2023-04-01T01:48:06.494Z,29.91
2023-04-01T01:49:06.429Z,29.90
2023-04-01T01:50:06.471Z,29.89
2023-04-01T01:51:06.494Z,29.90
2023-04-01T01:52:06.541Z,29.91
2023-04-01T01:53:06.523Z,29.88
2023-04-01T01:54:06.475Z,29.87
2023-04-01T01:55:06.459Z,29.89
2023-04-01T01:56:06.433Z,29.89
2023-04-01T01:57:06.461Z,29.88
2023-04-01T01:58:06.376Z,29.88
2023-04-01T01:59:06.338Z,29.88
2023-04-01T02:00:06.303Z,29.85
2023-04-01T02:01:06.316Z,29.91
2023-04-01T02:02:06.232Z,29.83
2023-04-01T02:03:06.254Z,29.90
2023-04-01T02:04:06.324Z,29.90
2023-04-01T02:05:06.287Z,29.89
2023-04-01T02:06:06.310Z,29.92
2023-04-01T02:07:06.366Z,29.88
2023-04-01T02:08:06.403Z,29.87
2023-04-01T02:09:06.444Z,29.91
2023-04-01T02:10:06.447Z,29.89
2023-04-01T02:11:06.500Z,29.89
2023-04-01T02:12:06.528Z,29.90
2023-04-01T02:13:06.571Z,29.91
2023-04-01T02:14:06.574Z,29.90
2023-04-01T02:15:06.646Z,29.88
2023-04-01T02:16:06.670Z,29.88
2023-04-01T02:17:06.709Z,29.88
2023-04-01T02:18:06.778Z,29.89
2023-04-01T02:19:06.733Z,29.86
2023-04-01T02:20:06.779Z,29.83
2023-04-01T02:21:06.787Z,29.86
2023-04-01T02:22:06.812Z,29.87
2023-04-01T02:23:06.793Z,29.86
2023-04-01T02:24:06.763Z,29.87
2023-04-01T02:25:06.720Z,29.91
2023-04-01T02:26:06.684Z,29.89
2023-04-01T02:27:06.662Z,29.88
2023-04-01T02:28:06.635Z,29.88
2023-04-01T02:29:06.611Z,29.87
2023-04-01T02:30:06.638Z,29.91
2023-04-01T02:31:06.552Z,29.93
2023-04-01T02:32:06.540Z,29.89
2023-04-01T02:33:06.714Z,29.87
2023-04-01T02:34:06.619Z,29.88
2023-04-01T02:35:06.665Z,29.90
2023-04-01T02:36:06.738Z,29.87
2023-04-01T02:37:06.741Z,29.92
2023-04-01T02:38:06.776Z,29.93
2023-04-01T02:39:06.817Z,29.82
2023-04-01T02:40:06.849Z,29.89
2023-04-01T02:41:06.889Z,29.88
2023-04-01T02:42:06.930Z,29.90
2023-04-01T02:43:06.972Z,29.87
2023-04-01T02:44:07.030Z,29.86
2023-04-01T02:45:07.044Z,29.90
2023-04-01T02:46:07.104Z,29.91
2023-04-01T02:47:07.233Z,29.88
2023-04-01T02:48:07.204Z,29.87
2023-04-01T02:49:07.211Z,29.87
2023-04-01T02:50:07.266Z,29.90
2023-04-01T02:51:07.287Z,29.89
2023-04-01T02:52:07.337Z,29.90
2023-04-01T02:53:07.371Z,29.85
2023-04-01T02:54:07.412Z,29.91
2023-04-01T02:55:07.455Z,29.89
2023-04-01T02:56:07.502Z,29.87
2023-04-01T02:57:07.600Z,29.86
2023-04-01T02:58:07.565Z,29.86
2023-04-01T02:59:07.593Z,29.88
2023-04-01T03:00:07.645Z,29.84
2023-04-01T03:01:07.733Z,29.83
2023-04-01T03:02:07.840Z,29.90
2023-04-01T03:03:08.005Z,29.91
2023-04-01T03:04:07.808Z,29.88
2023-04-01T03:05:07.836Z,29.87
2023-04-01T03:06:07.894Z,29.91
2023-04-01T03:07:07.929Z,29.85
2023-04-01T03:08:07.948Z,29.89
2023-04-01T03:09:07.992Z,29.89
2023-04-01T03:10:08.038Z,29.87
2023-04-01T03:11:08.079Z,29.88
2023-04-01T03:12:08.173Z,29.84
2023-04-01T03:13:08.073Z,29.84
2023-04-01T03:14:08.044Z,29.91
2023-04-01T03:15:10.890Z,29.87
2023-04-01T03:16:08.034Z,29.86
2023-04-01T03:17:07.963Z,29.86
2023-04-01T03:18:08.003Z,29.90
2023-04-01T03:19:07.918Z,29.86
2023-04-01T03:20:07.962Z,29.84
2023-04-01T03:21:07.875Z,29.84
2023-04-01T03:22:07.828Z,29.90
2023-04-01T03:23:07.807Z,29.93
2023-04-01T03:24:07.755Z,29.88
2023-04-01T03:25:07.735Z,29.87
2023-04-01T03:26:07.711Z,29.91
2023-04-01T03:27:07.665Z,29.91
2023-04-01T03:28:07.669Z,29.88
2023-04-01T03:29:07.690Z,29.90
2023-04-01T03:30:07.829Z,29.88
2023-04-01T03:31:07.820Z,29.88
2023-04-01T03:32:07.818Z,29.90
2023-04-01T03:33:07.929Z,29.88
2023-04-01T03:34:07.916Z,29.88
2023-04-01T03:35:07.925Z,29.87
2023-04-01T03:36:07.999Z,29.83
2023-04-01T03:37:07.992Z,29.90
2023-04-01T03:38:08.036Z,29.86
2023-04-01T03:39:08.009Z,29.90
2023-04-01T03:40:07.981Z,29.93
2023-04-01T03:41:07.964Z,29.91
2023-04-01T03:42:07.924Z,29.84
2023-04-01T03:43:07.935Z,29.86
2023-04-01T03:44:07.857Z,29.84
2023-04-01T03:45:07.836Z,29.90
2023-04-01T03:46:07.873Z,29.88
2023-04-01T03:47:07.794Z,29.88
2023-04-01T03:48:07.816Z,29.88
2023-04-01T03:49:07.832Z,29.93
2023-04-01T03:50:07.862Z,29.90
2023-04-01T03:51:07.917Z,29.86
2023-04-01T03:52:07.955Z,29.90
2023-04-01T03:53:07.975Z,29.90
2023-04-01T03:54:08.010Z,29.93
2023-04-01T03:55:08.055Z,29.91
2023-04-01T03:56:08.105Z,29.91
2023-04-01T03:57:08.193Z,29.86
2023-04-01T03:58:08.184Z,29.86
2023-04-01T03:59:08.233Z,29.87
2023-04-01T04:00:08.257Z,29.86
2023-04-01T04:01:08.289Z,29.88
2023-04-01T04:02:08.331Z,29.87
2023-04-01T04:03:08.473Z,29.90
2023-04-01T04:04:08.410Z,29.87
2023-04-01T04:05:08.460Z,29.91
2023-04-01T04:06:08.471Z,29.87
2023-04-01T04:07:08.510Z,29.83
2023-04-01T04:08:08.546Z,29.90
2023-04-01T04:09:08.601Z,29.83
2023-04-01T04:10:08.625Z,29.84
2023-04-01T04:11:08.665Z,29.86
2023-04-01T04:12:08.712Z,29.87
2023-04-01T04:13:08.743Z,29.84
2023-04-01T04:14:08.790Z,29.83
2023-04-01T04:15:08.838Z,29.90
2023-04-01T04:16:08.943Z,29.87
2023-04-01T04:17:08.913Z,29.84
2023-04-01T04:18:08.958Z,29.88
2023-04-01T04:19:09.010Z,29.88
2023-04-01T04:20:09.050Z,29.88
2023-04-01T04:21:09.063Z,29.87
2023-04-01T04:22:09.104Z,29.86
2023-04-01T04:23:09.154Z,29.88
2023-04-01T04:24:09.186Z,29.86
2023-04-01T04:25:09.240Z,29.86
2023-04-01T04:26:09.290Z,29.88
2023-04-01T04:27:09.328Z,29.84
2023-04-01T04:28:09.324Z,29.87
2023-04-01T04:29:09.346Z,29.86
2023-04-01T04:30:09.370Z,29.90
2023-04-01T04:31:09.444Z,29.87
2023-04-01T04:32:09.453Z,29.83
2023-04-01T04:33:09.540Z,29.87
2023-04-01T04:34:09.512Z,29.84
2023-04-01T04:35:09.543Z,29.88
2023-04-01T04:36:09.621Z,29.86
2023-04-01T04:37:09.644Z,29.90
2023-04-01T04:38:09.685Z,29.87
2023-04-01T04:39:09.700Z,29.86
2023-04-01T04:40:09.756Z,29.87
2023-04-01T04:41:09.783Z,29.87
2023-04-01T04:42:09.823Z,29.90
2023-04-01T04:43:09.858Z,29.86
2023-04-01T04:44:09.896Z,29.83
2023-04-01T04:45:09.950Z,29.86
2023-04-01T04:46:09.975Z,29.86
2023-04-01T04:47:10.104Z,29.82
2023-04-01T04:48:10.135Z,29.83
2023-04-01T04:49:10.076Z,29.87
2023-04-01T04:50:10.143Z,29.88
2023-04-01T04:51:10.152Z,29.84
2023-04-01T04:52:10.192Z,29.86
2023-04-01T04:53:10.234Z,29.84
2023-04-01T04:54:10.262Z,29.91
2023-04-01T04:55:10.320Z,29.86
2023-04-01T04:56:10.339Z,29.87
2023-04-01T04:57:10.504Z,29.84
2023-04-01T04:58:10.425Z,29.86
2023-04-01T04:59:10.471Z,29.83
2023-04-01T05:00:10.529Z,29.79
2023-04-01T05:01:10.642Z,29.84
2023-04-01T05:02:10.640Z,29.90
2023-04-01T05:03:10.741Z,29.84
2023-04-01T05:04:10.678Z,29.86
2023-04-01T05:05:10.717Z,29.87
2023-04-01T05:06:10.750Z,29.86
2023-04-01T05:07:10.800Z,29.83
2023-04-01T05:08:10.834Z,29.81
2023-04-01T05:09:10.881Z,29.88
2023-04-01T05:10:10.916Z,29.81
2023-04-01T05:11:13.633Z,29.87
2023-04-01T05:12:10.924Z,29.81
2023-04-01T05:13:10.887Z,29.80
2023-04-01T05:14:10.842Z,29.86
2023-04-01T05:15:10.813Z,29.87
2023-04-01T05:16:10.946Z,29.84
2023-04-01T05:17:10.805Z,29.81
2023-04-01T05:18:10.728Z,29.84
2023-04-01T05:19:10.704Z,29.81
2023-04-01T05:20:10.679Z,29.84
2023-04-01T05:21:10.651Z,29.80
2023-04-01T05:22:10.649Z,29.81
2023-04-01T05:23:10.618Z,29.81
2023-04-01T05:24:10.696Z,29.81
2023-04-01T05:25:10.708Z,29.83
2023-04-01T05:26:10.747Z,29.83
2023-04-01T05:27:10.817Z,29.84
2023-04-01T05:28:10.832Z,29.80
2023-04-01T05:29:10.861Z,29.84
2023-04-01T05:30:10.907Z,29.80
2023-04-01T05:31:11.074Z,29.80
2023-04-01T05:32:10.996Z,29.77
2023-04-01T05:33:11.035Z,29.76
2023-04-01T05:34:11.073Z,29.80
2023-04-01T05:35:11.106Z,29.79
2023-04-01T05:36:11.228Z,29.77
2023-04-01T05:37:11.196Z,29.75
2023-04-01T05:38:11.240Z,29.80
2023-04-01T05:39:11.251Z,29.81
2023-04-01T05:40:11.281Z,29.82
2023-04-01T05:41:11.331Z,29.79
2023-04-01T05:42:11.367Z,29.80
2023-04-01T05:43:11.441Z,29.79
2023-04-01T05:44:11.449Z,29.79
2023-04-01T05:45:11.490Z,29.79
2023-04-01T05:46:11.586Z,29.80
2023-04-01T05:47:11.597Z,29.75
2023-04-01T05:48:11.651Z,29.79
2023-04-01T05:49:11.649Z,29.76
2023-04-01T05:50:11.701Z,29.80
2023-04-01T05:51:11.729Z,29.76
2023-04-01T05:52:11.786Z,29.78
2023-04-01T05:53:11.817Z,29.76
2023-04-01T05:54:11.891Z,29.73
2023-04-01T05:55:11.883Z,29.76
2023-04-01T05:56:11.932Z,29.79
2023-04-01T05:57:12.009Z,29.76
2023-04-01T05:58:12.036Z,29.72
2023-04-01T05:59:12.051Z,29.72
2023-04-01T06:00:12.100Z,29.77
2023-04-01T06:01:15.805Z,29.74
2023-04-01T06:02:12.097Z,29.74
2023-04-01T06:03:12.111Z,29.75
2023-04-01T06:04:12.167Z,29.75
2023-04-01T06:05:12.063Z,29.74
2023-04-01T06:06:12.018Z,29.76
2023-04-01T06:07:11.982Z,29.75
2023-04-01T06:08:11.975Z,29.72
2023-04-01T06:09:11.947Z,29.68
2023-04-01T06:10:11.939Z,29.75
2023-04-01T06:11:11.920Z,29.76
2023-04-01T06:12:11.916Z,29.72
2023-04-01T06:13:11.909Z,29.71
2023-04-01T06:14:11.911Z,29.71
2023-04-01T06:15:11.866Z,29.70
2023-04-01T06:16:11.904Z,29.70
2023-04-01T06:17:11.825Z,29.74
2023-04-01T06:18:11.845Z,29.69
2023-04-01T06:19:11.791Z,29.72
2023-04-01T06:20:11.770Z,29.72
2023-04-01T06:21:11.740Z,29.68
2023-04-01T06:22:11.713Z,29.72
2023-04-01T06:23:11.733Z,29.70
2023-04-01T06:24:11.691Z,29.68
2023-04-01T06:25:11.686Z,29.71
2023-04-01T06:26:11.646Z,29.61
2023-04-01T06:27:11.620Z,29.70
2023-04-01T06:28:11.618Z,29.71
2023-04-01T06:29:11.586Z,29.67
2023-04-01T06:30:11.583Z,29.65
2023-04-01T06:31:11.631Z,29.71
2023-04-01T06:32:11.604Z,29.63
2023-04-01T06:33:11.636Z,29.66
2023-04-01T06:34:11.623Z,29.64
2023-04-01T06:35:11.602Z,29.62
2023-04-01T06:36:11.611Z,29.66
2023-04-01T06:37:11.556Z,29.63
2023-04-01T06:38:11.548Z,29.63
2023-04-01T06:39:11.524Z,29.63
2023-04-01T06:40:11.494Z,29.62
2023-04-01T06:41:11.464Z,29.64
2023-04-01T06:42:11.454Z,29.59
2023-04-01T06:43:11.454Z,29.59
2023-04-01T06:44:11.421Z,29.64
2023-04-01T06:45:11.389Z,29.61
2023-04-01T06:46:11.399Z,29.62
2023-04-01T06:47:11.347Z,29.62
2023-04-01T06:48:11.375Z,29.62
2023-04-01T06:49:11.313Z,29.58
2023-04-01T06:50:11.290Z,29.62
2023-04-01T06:51:11.264Z,29.63
2023-04-01T06:52:11.243Z,29.62
2023-04-01T06:53:11.215Z,29.61
2023-04-01T06:54:11.199Z,29.56
2023-04-01T06:55:11.188Z,29.59
2023-04-01T06:56:11.154Z,29.56
2023-04-01T06:57:11.180Z,29.55
2023-04-01T06:58:11.124Z,29.55
2023-04-01T06:59:11.079Z,29.53
2023-04-01T07:00:11.251Z,29.54
2023-04-01T07:01:11.034Z,29.53
2023-04-01T07:02:10.995Z,29.53
2023-04-01T07:03:11.030Z,29.54
2023-04-01T07:04:11.008Z,29.53
2023-04-01T07:05:11.121Z,29.50
2023-04-01T07:06:10.912Z,29.49
2023-04-01T07:07:10.881Z,29.53
2023-04-01T07:08:10.879Z,29.50
2023-04-01T07:09:10.832Z,29.46
2023-04-01T07:10:10.814Z,29.49
2023-04-01T07:11:10.781Z,29.44
2023-04-01T07:12:10.757Z,29.46
2023-04-01T07:13:10.750Z,29.44
2023-04-01T07:14:10.729Z,29.41
2023-04-01T07:15:10.735Z,29.38
2023-04-01T07:16:10.766Z,29.41
2023-04-01T07:17:10.801Z,29.33
2023-04-01T07:18:10.817Z,29.34
2023-04-01T07:19:10.823Z,29.36
2023-04-01T07:20:10.834Z,29.32
2023-04-01T07:21:10.858Z,29.29
2023-04-01T07:22:10.870Z,29.26
2023-04-01T07:23:10.903Z,29.28
2023-04-01T07:24:10.872Z,29.20
2023-04-01T07:25:10.825Z,29.23
2023-04-01T07:26:10.807Z,29.22
2023-04-01T07:27:10.779Z,29.16
2023-04-01T07:28:10.777Z,29.17
2023-04-01T07:29:10.737Z,29.19
2023-04-01T07:30:10.695Z,29.16
2023-04-01T07:31:10.709Z,29.17
2023-04-01T07:32:10.654Z,29.20
2023-04-01T07:33:10.704Z,29.20
2023-04-01T07:34:10.611Z,29.22
2023-04-01T07:35:10.619Z,29.23
2023-04-01T07:36:10.586Z,29.26
2023-04-01T07:37:10.524Z,29.24
2023-04-01T07:38:10.550Z,29.25
2023-04-01T07:39:10.518Z,29.22
2023-04-01T07:40:10.507Z,29.22
2023-04-01T07:41:10.509Z,29.20
2023-04-01T07:42:10.519Z,29.23
2023-04-01T07:43:10.528Z,29.23
2023-04-01T07:44:10.556Z,29.25
2023-04-01T07:45:10.546Z,29.18
2023-04-01T07:46:10.589Z,29.20
2023-04-01T07:47:10.558Z,29.11
2023-04-01T07:48:10.681Z,29.07
2023-04-01T07:49:10.583Z,29.05
2023-04-01T07:50:10.573Z,29.05
2023-04-01T07:51:10.574Z,29.00
2023-04-01T07:52:10.596Z,28.99
2023-04-01T07:53:10.565Z,28.95
2023-04-01T07:54:10.589Z,28.94
2023-04-01T07:55:10.564Z,28.80
2023-04-01T07:56:11.565Z,28.83
2023-04-01T07:57:10.583Z,28.78
2023-04-01T07:58:10.530Z,28.74
2023-04-01T07:59:10.518Z,28.69
2023-04-01T08:00:10.483Z,28.71
2023-04-01T08:01:10.460Z,28.66
2023-04-01T08:02:10.447Z,28.71
2023-04-01T08:03:10.492Z,28.62
2023-04-01T08:04:10.610Z,28.65
2023-04-01T08:05:10.365Z,28.57
2023-04-01T08:06:10.341Z,28.53
2023-04-01T08:07:10.316Z,28.50
2023-04-01T08:08:10.280Z,28.58
2023-04-01T08:09:10.268Z,28.56
2023-04-01T08:10:10.262Z,28.62
2023-04-01T08:11:10.202Z,28.54
2023-04-01T08:12:10.194Z,28.53
2023-04-01T08:13:10.155Z,28.50
2023-04-01T08:14:10.139Z,28.47
2023-04-01T08:15:10.096Z,28.46
2023-04-01T08:16:10.146Z,28.41
2023-04-01T08:17:10.047Z,28.41
2023-04-01T08:18:10.042Z,28.40
2023-04-01T08:19:10.060Z,28.37
2023-04-01T08:20:10.075Z,28.33
2023-04-01T08:21:10.084Z,28.37
2023-04-01T08:22:10.102Z,28.35
2023-04-01T08:23:10.140Z,28.31
2023-04-01T08:24:10.186Z,28.31
2023-04-01T08:25:10.215Z,28.30
2023-04-01T08:26:10.236Z,28.35
2023-04-01T08:27:10.270Z,28.30
2023-04-01T08:28:10.300Z,28.27
2023-04-01T08:29:10.319Z,28.24
2023-04-01T08:30:10.493Z,28.19
2023-04-01T08:31:10.368Z,28.26
2023-04-01T08:32:10.477Z,28.22
2023-04-01T08:33:10.488Z,28.25
2023-04-01T08:34:10.477Z,28.25
2023-04-01T08:35:10.502Z,28.22
2023-04-01T08:36:10.558Z,28.25
2023-04-01T08:37:10.561Z,28.24
2023-04-01T08:38:10.585Z,28.26
2023-04-01T08:39:10.613Z,28.24
2023-04-01T08:40:10.636Z,28.22
2023-04-01T08:41:10.661Z,28.20
2023-04-01T08:42:10.694Z,28.20
2023-04-01T08:43:10.709Z,28.20
2023-04-01T08:44:10.746Z,28.18
2023-04-01T08:45:12.501Z,28.19
2023-04-01T08:46:10.778Z,28.17
2023-04-01T08:47:10.707Z,28.13
2023-04-01T08:48:10.727Z,28.12
2023-04-01T08:49:10.737Z,28.09
2023-04-01T08:50:10.622Z,28.12
2023-04-01T08:51:10.559Z,28.10
2023-04-01T08:52:10.526Z,28.02
2023-04-01T08:53:10.528Z,28.04
2023-04-01T08:54:10.482Z,28.00
2023-04-01T08:55:10.449Z,28.02
2023-04-01T08:56:10.414Z,27.99
2023-04-01T08:57:10.432Z,27.95
2023-04-01T08:58:10.334Z,27.98
2023-04-01T08:59:10.303Z,27.93
2023-04-01T09:00:10.317Z,28.01
2023-04-01T09:01:10.238Z,27.96
2023-04-01T09:02:10.253Z,27.98
2023-04-01T09:03:10.279Z,28.01
2023-04-01T09:04:10.178Z,28.01
2023-04-01T09:05:10.112Z,27.98
2023-04-01T09:06:10.137Z,28.02
2023-04-01T09:07:12.209Z,27.95
2023-04-01T09:08:10.328Z,27.90
2023-04-01T09:09:10.353Z,27.89
2023-04-01T09:10:10.380Z,27.93
2023-04-01T09:11:10.380Z,27.94
2023-04-01T09:12:10.459Z,27.97
2023-04-01T09:13:10.419Z,27.95
2023-04-01T09:14:10.430Z,27.92
2023-04-01T09:15:10.446Z,27.92
2023-04-01T09:16:10.483Z,27.96
2023-04-01T09:17:10.485Z,27.95
2023-04-01T09:18:10.541Z,27.93
2023-04-01T09:19:11.131Z,27.95
2023-04-01T09:20:10.514Z,27.99
2023-04-01T09:21:10.518Z,27.91
2023-04-01T09:22:10.537Z,27.87
2023-04-01T09:23:10.555Z,27.91
2023-04-01T09:24:10.573Z,27.80
2023-04-01T09:25:10.576Z,27.82
2023-04-01T09:26:10.586Z,27.76
2023-04-01T09:27:10.581Z,27.74
2023-04-01T09:28:10.594Z,27.73
2023-04-01T09:29:10.597Z,27.81
2023-04-01T09:30:10.603Z,27.82
2023-04-01T09:31:10.613Z,27.82
2023-04-01T09:32:10.596Z,27.85
2023-04-01T09:33:10.618Z,27.87
2023-04-01T09:34:10.638Z,27.80
2023-04-01T09:35:10.639Z,27.90
2023-04-01T09:36:10.636Z,27.90
2023-04-01T09:37:10.620Z,27.89
2023-04-01T09:38:10.634Z,27.89
2023-04-01T09:39:10.635Z,27.86
2023-04-01T09:40:10.648Z,27.89
2023-04-01T09:41:10.653Z,27.86
2023-04-01T09:42:10.659Z,27.89
2023-04-01T09:43:10.664Z,27.90
2023-04-01T09:44:10.674Z,27.87
2023-04-01T09:45:10.668Z,27.90
2023-04-01T09:46:10.705Z,27.94
2023-04-01T09:47:10.685Z,27.93
2023-04-01T09:48:10.758Z,28.00
2023-04-01T09:49:10.692Z,27.97
2023-04-01T09:50:10.708Z,27.97
2023-04-01T09:51:10.708Z,27.97
2023-04-01T09:52:10.711Z,27.94
2023-04-01T09:53:10.717Z,27.97
2023-04-01T09:54:10.726Z,28.00
2023-04-01T09:55:10.738Z,27.97
2023-04-01T09:56:10.716Z,27.88
2023-04-01T09:57:10.750Z,27.87
2023-04-01T09:58:10.701Z,27.89
2023-04-01T09:59:10.689Z,27.85
2023-04-01T10:00:10.700Z,27.84
2023-04-01T10:01:10.679Z,27.85
2023-04-01T10:02:10.750Z,27.83
2023-04-01T10:03:10.706Z,27.79
2023-04-01T10:04:10.670Z,27.76
2023-04-01T10:05:10.685Z,27.79
2023-04-01T10:06:10.749Z,27.76
2023-04-01T10:07:10.625Z,27.79
2023-04-01T10:08:10.612Z,27.77
2023-04-01T10:09:10.581Z,27.79
2023-04-01T10:10:10.543Z,27.77
2023-04-01T10:11:10.493Z,27.79
2023-04-01T10:12:10.461Z,27.74
2023-04-01T10:13:10.437Z,27.71
2023-04-01T10:14:10.401Z,27.60
2023-04-01T10:15:10.361Z,27.71
2023-04-01T10:16:10.336Z,27.67
2023-04-01T10:17:10.277Z,27.72
2023-04-01T10:18:10.256Z,27.75
2023-04-01T10:19:10.197Z,27.75
2023-04-01T10:20:10.175Z,27.74
2023-04-01T10:21:10.121Z,27.76
2023-04-01T10:22:10.078Z,27.72
2023-04-01T10:23:10.029Z,27.71
2023-04-01T10:24:10.016Z,27.62
2023-04-01T10:25:09.974Z,27.61
2023-04-01T10:26:09.914Z,27.64
2023-04-01T10:27:09.873Z,27.53
2023-04-01T10:28:09.847Z,27.52
2023-04-01T10:29:09.791Z,27.48
2023-04-01T10:30:09.756Z,27.53
2023-04-01T10:31:09.731Z,27.54
2023-04-01T10:32:09.913Z,27.50
2023-04-01T10:33:09.666Z,27.49
2023-04-01T10:34:09.592Z,27.51
2023-04-01T10:35:09.561Z,27.55
2023-04-01T10:36:09.591Z,27.59
2023-04-01T10:37:09.466Z,27.61
2023-04-01T10:38:09.431Z,27.60
2023-04-01T10:39:09.379Z,27.58
2023-04-01T10:40:09.365Z,27.43
2023-04-01T10:41:09.296Z,27.42
2023-04-01T10:42:09.271Z,27.39
2023-04-01T10:43:09.220Z,27.36
2023-04-01T10:44:09.188Z,27.29
2023-04-01T10:45:09.133Z,27.33
2023-04-01T10:46:09.139Z,27.28
2023-04-01T10:47:09.044Z,27.22
2023-04-01T10:48:09.127Z,27.30
2023-04-01T10:49:08.968Z,27.30
2023-04-01T10:50:08.937Z,27.40
2023-04-01T10:51:08.889Z,27.31
2023-04-01T10:52:08.840Z,27.31
2023-04-01T10:53:08.797Z,27.24
2023-04-01T10:54:08.760Z,27.25
2023-04-01T10:55:08.721Z,27.22
2023-04-01T10:56:08.706Z,27.16
2023-04-01T10:57:08.765Z,27.16
2023-04-01T10:58:08.734Z,27.14
2023-04-01T10:59:08.790Z,27.10
2023-04-01T11:00:08.753Z,27.10
2023-04-01T11:01:08.866Z,27.06
2023-04-01T11:02:12.061Z,27.03
2023-04-01T11:03:08.882Z,26.95
2023-04-01T11:04:08.727Z,26.95
2023-04-01T11:05:08.676Z,26.97
2023-04-01T11:06:08.648Z,26.91
2023-04-01T11:07:08.576Z,26.95
2023-04-01T11:08:08.533Z,26.97
2023-04-01T11:09:08.489Z,26.97
2023-04-01T11:10:08.441Z,26.94
2023-04-01T11:11:08.425Z,26.89
2023-04-01T11:12:08.362Z,26.82
2023-04-01T11:13:08.301Z,26.87
2023-04-01T11:14:08.264Z,26.88
2023-04-01T11:15:08.225Z,26.90
2023-04-01T11:16:08.246Z,26.94
2023-04-01T11:17:08.128Z,26.90
2023-04-01T11:18:08.091Z,26.90
2023-04-01T11:19:08.031Z,26.90
2023-04-01T11:20:07.967Z,26.89
2023-04-01T11:21:07.936Z,26.90
2023-04-01T11:22:07.871Z,26.96
2023-04-01T11:23:07.887Z,26.97
2023-04-01T11:24:07.935Z,27.00
2023-04-01T11:25:07.934Z,27.03
2023-04-01T11:26:07.963Z,26.93
2023-04-01T11:27:08.000Z,27.00
2023-04-01T11:28:07.985Z,26.97
2023-04-01T11:29:07.999Z,27.05
2023-04-01T11:30:08.007Z,27.04
2023-04-01T11:31:08.039Z,27.08
2023-04-01T11:32:08.047Z,27.12
2023-04-01T11:33:08.145Z,27.05
2023-04-01T11:34:08.111Z,27.10
2023-04-01T11:35:08.093Z,27.08
2023-04-01T11:36:08.144Z,27.13
2023-04-01T11:37:08.143Z,27.11
2023-04-01T11:38:08.165Z,27.17
2023-04-01T11:39:08.182Z,27.14
2023-04-01T11:40:08.200Z,27.14
2023-04-01T11:41:08.234Z,27.17
2023-04-01T11:42:08.243Z,27.17
2023-04-01T11:43:08.260Z,27.17
2023-04-01T11:44:08.285Z,27.16
2023-04-01T11:45:08.317Z,27.14
2023-04-01T11:46:08.379Z,27.15
2023-04-01T11:47:08.344Z,27.21
2023-04-01T11:48:08.397Z,27.20
2023-04-01T11:49:08.391Z,27.19
2023-04-01T11:50:08.417Z,27.21
2023-04-01T11:51:08.436Z,27.24
2023-04-01T11:52:08.450Z,27.22
2023-04-01T11:53:08.484Z,27.22
2023-04-01T11:54:08.416Z,27.19
2023-04-01T11:55:08.388Z,27.22
2023-04-01T11:56:08.351Z,27.22
2023-04-01T11:57:08.332Z,27.25
2023-04-01T11:58:08.250Z,27.26
2023-04-01T11:59:08.221Z,27.26
2023-04-01T12:00:08.148Z,27.26
2023-04-01T12:01:08.129Z,27.27
2023-04-01T12:02:08.105Z,27.29
2023-04-01T12:03:08.077Z,27.28
2023-04-01T12:04:08.170Z,27.28
2023-04-01T12:05:07.940Z,27.28
2023-04-01T12:06:07.896Z,27.33
2023-04-01T12:07:07.906Z,27.31
2023-04-01T12:08:07.945Z,27.31
2023-04-01T12:09:07.890Z,27.41
2023-04-01T12:10:07.860Z,27.34
2023-04-01T12:11:07.821Z,27.38
2023-04-01T12:12:07.760Z,27.41
2023-04-01T12:13:07.718Z,27.41
2023-04-01T12:14:07.670Z,27.40
2023-04-01T12:15:07.619Z,27.38
2023-04-01T12:16:07.636Z,27.42
2023-04-01T12:17:07.549Z,27.40
2023-04-01T12:18:07.618Z,27.42
2023-04-01T12:19:07.611Z,27.40
2023-04-01T12:20:07.634Z,27.37
2023-04-01T12:21:07.641Z,27.37
2023-04-01T12:22:07.652Z,27.33
2023-04-01T12:23:07.672Z,27.39
2023-04-01T12:24:07.647Z,27.39
2023-04-01T12:25:07.680Z,27.42
2023-04-01T12:26:07.711Z,27.43
2023-04-01T12:27:07.736Z,27.46
2023-04-01T12:28:07.768Z,27.39
2023-04-01T12:29:07.789Z,27.43
2023-04-01T12:30:07.804Z,27.35
2023-04-01T12:31:07.889Z,27.43
2023-04-01T12:32:07.917Z,27.42
2023-04-01T12:33:07.914Z,27.42
2023-04-01T12:34:07.923Z,27.40
2023-04-01T12:35:07.944Z,27.37
2023-04-01T12:36:08.006Z,27.38
2023-04-01T12:37:07.997Z,27.35
2023-04-01T12:38:08.024Z,27.38
2023-04-01T12:39:08.059Z,27.24
2023-04-01T12:40:08.077Z,27.22
2023-04-01T12:41:08.112Z,27.18
2023-04-01T12:42:08.119Z,27.18
2023-04-01T12:43:08.126Z,27.09
2023-04-01T12:44:08.142Z,27.07
2023-04-01T12:45:08.175Z,27.06
2023-04-01T12:46:08.235Z,27.09
2023-04-01T12:47:08.207Z,26.95
2023-04-01T12:48:08.209Z,27.00
2023-04-01T12:49:08.201Z,27.02
2023-04-01T12:50:08.248Z,26.97
2023-04-01T12:51:08.203Z,27.00
2023-04-01T12:52:08.234Z,26.98
2023-04-01T12:53:08.210Z,27.01